Time;durP1;ratioP1;P1;durP2;ratioP2;P2;SDS_P1;SDS_P2;PMS_P1;PMS_P2;Temp;Humidity;BMP_temperature;BMP_pressure;BME280_temperature;BME280_humidity;BME280_pressure;Samples;Min_cycle;Max_cycle;Signal;HPM_P1;HPM_P2
2021/06/02 00:01:59;;;;;;;4.23;3.00;;;;;;;12.40;100.00;99750.86;1830458;77;21094;-61
2021/06/02 00:04:28;;;;;;;4.03;2.60;;;;;;;12.37;100.00;99746.83;1822339;77;21689;-62
2021/06/02 00:07:02;;;;;;;4.63;3.30;;;;;;;12.38;100.00;99742.41;1822215;77;21571;-62
2021/06/02 00:09:29;;;;;;;4.50;3.00;;;;;;;12.38;100.00;99745.02;1822086;77;20931;-62
2021/06/02 00:12:00;;;;;;;4.47;2.87;;;;;;;12.38;100.00;99745.81;1823927;77;20913;-63
2021/06/02 00:14:28;;;;;;;6.20;3.10;;;;;;;12.39;100.00;99738.30;1828372;77;21088;-62
2021/06/02 00:16:57;;;;;;;4.83;2.70;;;;;;;12.39;100.00;99740.91;1832024;76;21055;-62
2021/06/02 00:19:26;;;;;;;6.27;3.13;;;;;;;12.42;100.00;99743.59;1816493;77;21061;-62
2021/06/02 00:21:56;;;;;;;5.00;3.40;;;;;;;12.46;100.00;99743.98;1823190;77;20937;-66
2021/06/02 00:24:25;;;;;;;4.47;2.67;;;;;;;12.47;100.00;99749.02;1827906;78;21105;-63
2021/06/02 00:26:54;;;;;;;4.97;3.00;;;;;;;12.47;100.00;99746.41;1790387;78;21624;-62
2021/06/02 00:29:20;;;;;;;5.13;3.43;;;;;;;12.47;100.00;99741.69;1826162;78;20971;-62
2021/06/02 00:31:48;;;;;;;5.33;3.27;;;;;;;12.49;100.00;99733.91;1788740;79;20964;-66
2021/06/02 00:34:15;;;;;;;4.93;3.10;;;;;;;12.47;100.00;99734.64;1825402;78;20977;-63
2021/06/02 00:36:43;;;;;;;4.60;3.23;;;;;;;12.46;100.00;99734.83;1826407;78;21007;-62
2021/06/02 00:39:12;;;;;;;8.40;3.80;;;;;;;12.45;100.00;99741.08;1823011;77;21100;-62
2021/06/02 00:41:41;;;;;;;5.77;3.30;;;;;;;12.46;100.00;99737.45;1824168;77;21565;-67
2021/06/02 00:44:10;;;;;;;4.50;2.80;;;;;;;12.46;100.00;99733.52;1821432;77;22264;-64
2021/06/02 00:46:37;;;;;;;4.83;3.13;;;;;;;12.48;100.00;99738.06;1824926;77;20948;-63
2021/06/02 00:49:15;;;;;;;6.57;3.10;;;;;;;12.48;100.00;99741.47;1822323;77;21532;-64
2021/06/02 00:51:46;;;;;;;7.17;3.63;;;;;;;12.49;100.00;99735.73;1827383;78;21049;-67
2021/06/02 00:54:10;;;;;;;4.93;3.20;;;;;;;12.49;100.00;99733.11;1825219;77;21000;-64
2021/06/02 00:57:15;;;;;;;4.40;2.83;;;;;;;12.48;100.00;99737.55;1821939;77;21016;-64
2021/06/02 00:59:45;;;;;;;6.03;3.27;;;;;;;12.47;100.00;99739.08;1733305;81;21064;-63
2021/06/02 01:02:19;;;;;;;4.67;2.93;;;;;;;12.47;100.00;99732.03;1730418;81;22411;-63
2021/06/02 01:04:48;;;;;;;5.87;3.20;;;;;;;12.55;100.00;99733.60;1781648;77;21088;-63
2021/06/02 01:07:14;;;;;;;3.90;2.80;;;;;;;12.63;100.00;99726.31;1827713;77;20900;-66
2021/06/02 01:09:48;;;;;;;4.70;2.97;;;;;;;12.58;100.00;99727.96;1836653;77;21054;-64
2021/06/02 01:12:19;;;;;;;4.13;2.43;;;;;;;12.47;100.00;99722.88;1826511;77;21604;-64
2021/06/02 01:14:46;;;;;;;6.60;3.13;;;;;;;12.51;100.00;99721.95;1839005;77;20910;-63
2021/06/02 01:17:16;;;;;;;5.90;2.90;;;;;;;12.53;100.00;99714.70;1838271;77;21085;-64
2021/06/02 01:19:44;;;;;;;4.63;2.93;;;;;;;12.66;100.00;99718.56;1836465;77;21014;-63
2021/06/02 01:22:11;;;;;;;7.50;3.30;;;;;;;12.59;100.00;99711.25;1833859;77;20952;-63
2021/06/02 01:24:38;;;;;;;5.50;3.17;;;;;;;12.66;100.00;99711.52;1835334;77;21523;-63
2021/06/02 01:27:09;;;;;;;5.10;2.93;;;;;;;12.59;100.00;99709.44;1837602;77;20959;-63
2021/06/02 01:29:41;;;;;;;;;;;;;;;12.61;100.00;99706.60;1815799;77;21008;-63
2021/06/02 01:32:38;;;;;;;5.03;2.70;;;;;;;12.66;100.00;99704.18;1827564;77;20215;-64
2021/06/02 01:35:49;;;;;;;7.77;3.00;;;;;;;12.55;100.00;99699.11;1819227;77;20996;-66
2021/06/02 01:38:33;;;;;;;4.37;2.90;;;;;;;12.56;100.00;99693.37;1805957;78;21465;-63
2021/06/02 01:41:09;;;;;;;5.57;2.50;;;;;;;12.52;100.00;99694.29;1824873;77;21018;-63
2021/06/02 01:44:22;;;;;;;4.10;2.73;;;;;;;12.51;100.00;99690.59;1826246;77;21565;-64
2021/06/02 01:47:19;;;;;;;5.83;2.70;;;;;;;12.50;100.00;99696.33;1789936;79;20972;-66
2021/06/02 01:50:30;;;;;;;7.07;3.07;;;;;;;12.53;100.00;99688.55;1837067;77;21051;-65
2021/06/02 01:53:21;;;;;;;4.22;3.02;;;;;;;12.56;100.00;99691.55;1833206;77;20975;-64
2021/06/02 01:56:28;;;;;;;4.00;2.43;;;;;;;12.57;100.00;99691.84;1837535;77;21461;-64
2021/06/02 01:59:15;;;;;;;5.07;3.03;;;;;;;12.56;100.00;99689.45;1836971;77;21504;-67
2021/06/02 02:02:18;;;;;;;6.50;3.20;;;;;;;12.54;100.00;99684.92;1817645;77;21637;-65
2021/06/02 02:05:15;;;;;;;7.00;3.03;;;;;;;12.60;100.00;99691.42;1806538;77;20883;-65
2021/06/02 02:08:20;;;;;;;5.83;2.67;;;;;;;12.60;100.00;99684.09;1818668;78;21002;-64
2021/06/02 02:10:53;;;;;;;5.30;2.53;;;;;;;12.66;100.00;99688.49;1818296;78;21240;-64
2021/06/02 02:13:50;;;;;;;6.90;2.77;;;;;;;12.58;100.00;99691.36;1801081;77;21392;-64
2021/06/02 02:16:50;;;;;;;4.37;2.30;;;;;;;12.66;100.00;99701.56;1818097;78;22221;-64
2021/06/02 02:19:44;;;;;;;4.37;2.87;;;;;;;12.68;100.00;99707.88;1817926;78;20875;-65
2021/06/02 02:22:39;;;;;;;4.20;2.87;;;;;;;12.68;100.00;99707.38;1818086;78;20958;-64
2021/06/02 02:25:27;;;;;;;9.70;3.03;;;;;;;12.69;100.00;99706.86;1818864;78;21102;-64
2021/06/02 02:28:25;;;;;;;4.60;2.60;;;;;;;12.64;100.00;99711.42;1810854;77;20960;-65
2021/06/02 02:31:12;;;;;;;5.93;2.97;;;;;;;12.63;100.00;99708.52;1812858;77;20968;-64
2021/06/02 02:33:47;;;;;;;6.30;2.60;;;;;;;12.63;100.00;99708.52;1806087;77;21000;-65
2021/06/02 02:36:24;;;;;;;6.00;2.50;;;;;;;12.65;100.00;99707.78;1801056;78;21147;-65
2021/06/02 02:39:11;;;;;;;4.80;2.67;;;;;;;12.69;100.00;99709.00;1809130;78;21003;-67
2021/06/02 02:42:10;;;;;;;4.53;2.60;;;;;;;12.70;100.00;99715.83;1817598;78;21054;-66
2021/06/02 02:44:51;;;;;;;6.50;2.23;;;;;;;12.77;100.00;99711.87;1810893;77;20992;-65
2021/06/02 02:47:50;;;;;;;4.57;2.20;;;;;;;12.75;100.00;99702.91;1815524;78;22433;-65
2021/06/02 02:50:40;;;;;;;4.03;2.50;;;;;;;12.80;100.00;99700.45;1817683;78;21709;-71
2021/06/02 02:53:21;;;;;;;8.07;3.17;;;;;;;12.86;100.00;99700.92;1815218;78;20872;-65
2021/06/02 02:55:53;;;;;;;4.37;2.50;;;;;;;12.84;100.00;99696.43;1787424;78;21331;-65
2021/06/02 02:58:34;;;;;;;4.03;2.30;;;;;;;12.89;100.00;99691.36;1776784;79;20980;-65
2021/06/02 03:01:18;;;;;;;5.33;2.17;;;;;;;12.87;100.00;99699.91;1757644;79;63578;-69
2021/06/02 03:04:08;;;;;;;3.53;2.17;;;;;;;12.90;100.00;99700.00;1735164;80;21124;-68
2021/06/02 03:06:41;;;;;;;5.20;2.47;;;;;;;12.96;100.00;99699.67;1723841;80;20940;-70
2021/06/02 03:09:30;;;;;;;5.70;2.43;;;;;;;12.94;100.00;99688.61;1738298;80;21884;-70
2021/06/02 03:12:11;;;;;;;5.07;2.20;;;;;;;12.96;100.00;99685.29;1716970;80;20976;-68
2021/06/02 03:14:56;;;;;;;5.17;2.30;;;;;;;12.99;100.00;99676.99;1744701;80;20972;-69
2021/06/02 03:18:04;;;;;;;4.43;2.37;;;;;;;13.00;100.00;99680.72;1739182;80;21010;-68
2021/06/02 03:20:36;;;;;;;4.70;2.17;;;;;;;13.01;100.00;99675.77;1737644;80;20955;-68
2021/06/02 03:23:30;;;;;;;4.83;2.17;;;;;;;13.06;100.00;99679.84;1737031;81;21084;-70
2021/06/02 03:26:12;;;;;;;6.30;2.57;;;;;;;13.09;100.00;99676.81;1739735;81;20966;-68
2021/06/02 03:29:12;;;;;;;4.53;2.57;;;;;;;13.14;100.00;99673.06;1725826;81;21099;-69
2021/06/02 03:32:14;;;;;;;5.57;2.70;;;;;;;13.16;100.00;99668.92;1715107;79;20986;-67
2021/06/02 03:35:05;;;;;;;7.80;2.20;;;;;;;13.19;100.00;99672.42;1764714;79;21058;-70
2021/06/02 03:38:09;;;;;;;;;;;;;;;13.21;100.00;99672.19;1763488;79;21944;-69
2021/06/02 03:40:54;;;;;;;3.70;2.27;;;;;;;13.23;100.00;99678.86;1760827;79;20272;-68
2021/06/02 03:43:34;;;;;;;4.60;2.37;;;;;;;13.25;100.00;99680.73;1772794;79;21175;-69
2021/06/02 03:46:39;;;;;;;4.13;2.17;;;;;;;13.26;100.00;99673.20;1736770;81;21921;-69
2021/06/02 03:49:30;;;;;;;6.80;2.83;;;;;;;13.32;100.00;99675.45;1757597;79;20912;-70
2021/06/02 03:51:59;;;;;;;4.03;2.00;;;;;;;13.35;100.00;99675.83;1769075;79;21146;-68
2021/06/02 03:54:55;;;;;;;4.03;2.00;;;;;;;13.35;100.00;99676.34;1764798;79;21023;-70
2021/06/02 03:58:04;;;;;;;4.40;2.33;;;;;;;13.38;100.00;99676.70;1777048;79;20970;-69
2021/06/02 04:00:57;;;;;;;5.13;2.40;;;;;;;13.38;100.00;99678.53;1748206;79;21164;-68
2021/06/02 04:03:31;;;;;;;8.07;2.27;;;;;;;13.45;100.00;99679.76;1748354;80;21170;-70
2021/06/02 04:06:18;;;;;;;3.13;2.13;;;;;;;13.53;100.00;99678.99;1741000;80;22459;-72
2021/06/02 04:09:13;;;;;;;4.90;2.30;;;;;;;13.46;100.00;99674.32;1717993;80;20932;-70
2021/06/02 04:12:06;;;;;;;3.57;2.20;;;;;;;13.56;100.00;99675.13;1695459;82;20973;-70
2021/06/02 04:14:37;;;;;;;6.20;2.03;;;;;;;13.51;100.00;99666.61;1726276;81;21077;-70
2021/06/02 04:17:03;;;;;;;4.28;1.98;;;;;;;13.57;100.00;99676.75;1745159;80;22035;-69
2021/06/02 04:19:32;;;;;;;4.27;2.10;;;;;;;13.58;100.00;99677.03;1741596;80;21097;-69
2021/06/02 04:22:07;;;;;;;5.20;2.10;;;;;;;13.59;100.00;99676.00;1725690;81;20999;-71
2021/06/02 04:24:37;;;;;;;4.57;2.30;;;;;;;13.61;100.00;99680.53;1742586;80;21318;-69
2021/06/02 04:27:05;;;;;;;4.10;2.27;;;;;;;13.64;100.00;99664.39;1722178;82;21092;-70
2021/06/02 04:29:32;;;;;;;7.30;2.37;;;;;;;13.69;100.00;99665.84;1723490;81;20926;-69
2021/06/02 04:32:06;;;;;;;4.17;2.13;;;;;;;13.71;100.00;99661.67;1750324;80;21012;-69
2021/06/02 04:34:34;;;;;;;4.30;2.20;;;;;;;13.75;100.00;99656.30;1755637;80;21570;-70
2021/06/02 04:37:03;;;;;;;5.07;2.77;;;;;;;13.78;100.00;99662.41;1747170;80;21534;-69
2021/06/02 04:39:31;;;;;;;4.30;2.53;;;;;;;13.81;100.00;99656.23;1753504;80;20916;-71
2021/06/02 04:42:00;;;;;;;3.87;2.20;;;;;;;13.88;100.00;99650.41;1727201;81;20988;-70
2021/06/02 04:44:28;;;;;;;4.40;2.53;;;;;;;13.97;100.00;99652.73;1728268;81;22078;-70
2021/06/02 04:46:55;;;;;;;4.67;2.30;;;;;;;14.09;100.00;99652.27;1697564;82;20972;-71
2021/06/02 04:49:33;;;;;;;4.30;2.20;;;;;;;14.18;100.00;99645.72;1730340;81;21035;-68
2021/06/02 04:52:34;;;;;;;4.87;2.43;;;;;;;14.24;100.00;99646.12;1728300;81;20996;-71
2021/06/02 04:55:40;;;;;;;6.35;2.70;;;;;;;14.29;100.00;99655.45;1722946;81;20999;-70
2021/06/02 04:58:53;;;;;;;2.93;1.90;;;;;;;14.28;100.00;99648.63;1725707;81;22061;-68
2021/06/02 05:01:45;;;;;;;7.73;2.03;;;;;;;14.30;100.00;99651.02;1731712;80;21634;-69
2021/06/02 05:04:26;;;;;;;4.33;1.90;;;;;;;14.40;100.00;99651.80;1737576;80;20976;-69
2021/06/02 05:07:14;;;;;;;4.60;2.13;;;;;;;14.46;100.00;99660.07;1747293;80;20935;-71
2021/06/02 05:10:02;;;;;;;4.77;2.53;;;;;;;14.49;100.00;99667.50;1708676;80;21000;-70
2021/06/02 05:13:12;;;;;;;3.20;2.10;;;;;;;14.63;100.00;99666.84;1738958;80;21615;-69
2021/06/02 05:15:47;;;;;;;4.17;1.80;;;;;;;14.65;100.00;99665.58;1734033;80;21115;-70
2021/06/02 05:18:50;;;;;;;5.00;2.53;;;;;;;14.66;100.00;99660.64;1737000;80;21485;-70
2021/06/02 05:22:07;;;;;;;5.77;2.10;;;;;;;14.78;100.00;99664.09;1737371;81;21055;-70
2021/06/02 05:25:00;;;;;;;4.77;2.17;;;;;;;14.70;100.00;99652.61;1725489;81;21537;-69
2021/06/02 05:28:21;;;;;;;3.60;2.33;;;;;;;14.67;100.00;99647.01;1736585;81;21453;-69
2021/06/02 05:31:26;;;;;;;6.35;2.52;;;;;;;14.69;100.00;99641.80;1758819;79;21110;-67
2021/06/02 05:34:22;;;;;;;5.60;2.80;;;;;;;14.70;100.00;99656.55;1768910;79;21561;-69
2021/06/02 05:37:07;;;;;;;4.67;2.87;;;;;;;14.71;100.00;99646.33;1666424;84;21089;-70
2021/06/02 05:40:02;;;;;;;4.33;2.60;;;;;;;14.73;100.00;99641.64;1744976;79;22129;-70
2021/06/02 05:42:52;;;;;;;4.43;2.53;;;;;;;14.74;100.00;99648.51;1725486;79;22376;-70
2021/06/02 05:45:51;;;;;;;5.10;2.37;;;;;;;14.75;100.00;99638.30;1764669;79;21570;-71
2021/06/02 05:48:49;;;;;;;12.40;2.40;;;;;;;14.76;100.00;99632.02;1732513;79;21636;-69
2021/06/02 05:51:51;;;;;;;5.10;2.27;;;;;;;14.79;100.00;99629.46;1765961;79;21434;-68
2021/06/02 05:55:06;;;;;;;4.28;2.47;;;;;;;14.83;100.00;99631.41;1762885;79;21018;-70
2021/06/02 05:58:16;;;;;;;3.93;2.50;;;;;;;14.86;100.00;99620.98;1754956;79;21305;-70
2021/06/02 06:01:00;;;;;;;6.50;2.30;;;;;;;14.90;100.00;99621.33;1765229;79;21189;-69
2021/06/02 06:04:01;;;;;;;5.17;2.43;;;;;;;14.88;100.00;99629.92;1758920;79;21775;-71
2021/06/02 06:07:01;;;;;;;3.60;2.20;;;;;;;14.91;100.00;99622.40;1754751;80;20960;-72
2021/06/02 06:10:07;;;;;;;5.13;2.50;;;;;;;14.97;100.00;99639.08;1756779;80;21423;-71
2021/06/02 06:12:50;;;;;;;3.10;2.00;;;;;;;15.03;100.00;99631.08;1752269;80;21046;-70
2021/06/02 06:15:59;;;;;;;4.90;2.27;;;;;;;15.07;100.00;99633.53;1756765;80;20984;-70
2021/06/02 06:18:49;;;;;;;5.00;2.67;;;;;;;15.11;100.00;99635.19;1752633;80;20961;-70
2021/06/02 06:22:02;;;;;;;5.47;2.30;;;;;;;15.20;100.00;99633.84;1752292;80;21067;-69
2021/06/02 06:24:52;;;;;;;4.77;2.67;;;;;;;15.28;100.00;99630.87;1759569;80;20956;-69
2021/06/02 06:27:46;;;;;;;6.17;2.60;;;;;;;15.33;100.00;99627.03;1761065;80;21620;-70
2021/06/02 06:30:24;;;;;;;4.73;2.77;;;;;;;15.38;100.00;99630.30;1762687;79;21433;-71
2021/06/02 06:32:53;;;;;;;3.93;2.50;;;;;;;15.42;100.00;99631.92;1759605;80;20976;-70
2021/06/02 06:35:21;;;;;;;4.63;3.10;;;;;;;15.48;100.00;99631.02;1755184;80;20969;-70
2021/06/02 06:37:53;;;;;;;4.07;2.20;;;;;;;15.53;100.00;99631.12;1757580;80;20968;-71
2021/06/02 06:40:27;;;;;;;4.53;2.73;;;;;;;15.57;100.00;99621.77;1751442;80;21595;-70
2021/06/02 06:42:57;;;;;;;5.10;2.50;;;;;;;15.59;100.00;99622.33;1758707;80;20892;-69
2021/06/02 06:45:32;;;;;;;4.73;2.60;;;;;;;15.63;100.00;99623.98;1757960;80;20980;-70
2021/06/02 06:48:06;;;;;;;5.17;2.77;;;;;;;15.69;100.00;99636.23;1757886;80;20987;-70
2021/06/02 06:50:32;;;;;;;4.30;2.37;;;;;;;15.67;100.00;99629.88;1756135;80;21833;-71
2021/06/02 06:53:05;;;;;;;4.50;2.47;;;;;;;15.69;100.00;99640.97;1758487;80;21075;-70
2021/06/02 06:55:32;;;;;;;6.63;2.60;;;;;;;15.76;100.00;99637.70;1753932;80;21027;-71
2021/06/02 06:57:58;;;;;;;5.67;2.57;;;;;;;15.85;100.00;99644.70;1734323;81;20995;-69
2021/06/02 07:00:26;;;;;;;6.23;2.60;;;;;;;15.88;100.00;99636.88;1711177;80;21421;-71
2021/06/02 07:02:52;;;;;;;3.63;2.40;;;;;;;15.87;100.00;99645.77;1761472;80;20939;-72
2021/06/02 07:05:19;;;;;;;4.03;2.20;;;;;;;15.81;100.00;99649.63;1761939;80;21809;-71
2021/06/02 07:07:46;;;;;;;3.70;2.63;;;;;;;15.70;100.00;99635.98;1751635;80;20925;-70
2021/06/02 07:10:14;;;;;;;5.23;2.67;;;;;;;15.65;100.00;99635.89;1759774;80;21024;-70
2021/06/02 07:12:42;;;;;;;3.37;2.27;;;;;;;15.62;100.00;99646.03;1758014;80;21884;-70
2021/06/02 07:15:11;;;;;;;5.10;2.57;;;;;;;15.61;100.00;99645.23;1759291;80;21623;-70
2021/06/02 07:17:40;;;;;;;4.30;2.90;;;;;;;15.60;100.00;99642.83;1753625;80;21780;-70
2021/06/02 07:20:10;;;;;;;5.13;2.10;;;;;;;15.57;100.00;99646.21;1756434;80;20933;-70
2021/06/02 07:22:41;;;;;;;3.80;2.40;;;;;;;15.71;100.00;99652.55;1760824;80;21504;-69
2021/06/02 07:25:10;;;;;;;5.03;2.40;;;;;;;15.71;100.00;99650.72;1758421;80;21027;-71
2021/06/02 07:27:37;;;;;;;6.10;3.00;;;;;;;15.69;100.00;99648.05;1762261;80;21601;-68
2021/06/02 07:30:05;;;;;;;4.97;2.67;;;;;;;15.63;100.00;99652.88;1750106;80;21158;-69
2021/06/02 07:32:33;;;;;;;6.60;2.57;;;;;;;15.53;100.00;99654.76;1753284;80;20947;-68
2021/06/02 07:35:00;;;;;;;4.50;2.90;;;;;;;15.46;100.00;99656.73;1754902;80;21084;-68
2021/06/02 07:37:26;;;;;;;5.03;2.90;;;;;;;15.43;100.00;99659.81;1751877;80;21069;-68
2021/06/02 07:39:55;;;;;;;4.40;2.53;;;;;;;15.37;100.00;99660.20;1751460;80;21249;-68
2021/06/02 07:42:22;;;;;;;4.07;2.17;;;;;;;15.26;100.00;99655.22;1752296;80;21094;-69
2021/06/02 07:44:48;;;;;;;4.60;2.50;;;;;;;15.24;100.00;99657.81;1752704;80;21586;-69
2021/06/02 07:47:15;;;;;;;6.77;2.97;;;;;;;15.25;100.00;99662.83;1754225;80;20977;-69
2021/06/02 07:49:42;;;;;;;4.17;2.50;;;;;;;15.27;100.00;99653.42;1752399;80;21059;-70
2021/06/02 07:52:10;;;;;;;5.83;3.03;;;;;;;15.27;100.00;99667.87;1758139;80;21274;-69
2021/06/02 07:54:37;;;;;;;4.77;2.60;;;;;;;15.24;100.00;99661.75;1753698;80;22101;-68
2021/06/02 07:57:05;;;;;;;6.90;2.70;;;;;;;15.24;100.00;99659.13;1755947;80;20944;-69
2021/06/02 07:59:32;;;;;;;4.30;2.33;;;;;;;15.20;100.00;99659.30;1738665;80;20956;-70
2021/06/02 08:02:01;;;;;;;5.73;2.60;;;;;;;15.08;100.00;99661.40;1752609;80;21148;-69
2021/06/02 08:04:27;;;;;;;5.27;2.50;;;;;;;14.94;100.00;99661.83;1751671;80;21588;-72
2021/06/02 08:06:54;;;;;;;4.43;2.50;;;;;;;14.91;100.00;99659.66;1753075;80;21878;-70
2021/06/02 08:09:21;;;;;;;5.60;2.83;;;;;;;14.88;100.00;99664.03;1749267;80;21005;-71
2021/06/02 08:11:48;;;;;;;4.33;2.53;;;;;;;14.86;100.00;99667.41;1752757;80;20829;-70
2021/06/02 08:14:15;;;;;;;4.70;2.80;;;;;;;14.88;100.00;99667.97;1763969;80;21573;-70
2021/06/02 08:16:42;;;;;;;5.53;3.20;;;;;;;14.81;100.00;99672.83;1762812;80;20996;-70
2021/06/02 08:19:09;;;;;;;5.57;3.33;;;;;;;14.86;100.00;99676.08;1758500;80;21050;-70
2021/06/02 08:21:38;;;;;;;5.27;2.80;;;;;;;14.79;100.00;99676.69;1752746;80;21464;-71
2021/06/02 08:24:06;;;;;;;13.47;3.73;;;;;;;14.75;100.00;99672.91;1751997;80;21016;-72
2021/06/02 08:26:36;;;;;;;6.20;2.70;;;;;;;14.74;100.00;99672.13;1750058;80;21043;-71
2021/06/02 08:29:04;;;;;;;7.97;2.90;;;;;;;14.79;100.00;99676.17;1752460;80;20955;-71
2021/06/02 08:31:31;;;;;;;7.13;2.70;;;;;;;14.74;100.00;99679.98;1750917;80;21102;-70
2021/06/02 08:33:59;;;;;;;6.10;2.57;;;;;;;14.73;100.00;99682.30;1749700;80;21593;-70
2021/06/02 08:36:27;;;;;;;5.73;3.00;;;;;;;14.72;100.00;99679.92;1761129;80;21661;-70
2021/06/02 08:38:54;;;;;;;5.23;2.43;;;;;;;14.64;100.00;99679.72;1753663;80;20901;-71
2021/06/02 08:41:21;;;;;;;4.17;2.43;;;;;;;14.58;100.00;99679.30;1751989;80;21039;-69
2021/06/02 08:43:49;;;;;;;5.30;2.63;;;;;;;14.51;100.00;99683.34;1752164;80;21099;-68
2021/06/02 08:46:17;;;;;;;3.83;2.23;;;;;;;14.47;100.00;99682.64;1750947;80;21332;-69
2021/06/02 08:48:46;;;;;;;6.57;2.60;;;;;;;14.43;100.00;99684.11;1752104;80;21049;-70
2021/06/02 08:51:13;;;;;;;6.60;2.50;;;;;;;14.39;100.00;99681.13;1755454;80;21103;-70
2021/06/02 08:53:41;;;;;;;5.57;3.20;;;;;;;14.44;100.00;99679.17;1756319;80;21043;-68
2021/06/02 08:56:07;;;;;;;6.57;3.30;;;;;;;14.46;100.00;99687.61;1756292;80;22191;-68
2021/06/02 08:58:34;;;;;;;7.40;4.03;;;;;;;14.47;100.00;99687.40;1752756;80;20829;-69
2021/06/02 09:01:01;;;;;;;10.73;3.17;;;;;;;14.54;100.00;99693.88;1680608;82;21393;-67
2021/06/02 09:03:31;;;;;;;5.37;2.77;;;;;;;14.64;100.00;99702.53;1755380;80;21596;-70
2021/06/02 09:05:58;;;;;;;6.00;2.87;;;;;;;14.62;100.00;99701.43;1755874;80;21092;-67
2021/06/02 09:08:27;;;;;;;6.53;2.97;;;;;;;14.62;100.00;99698.80;1758514;80;21109;-70
2021/06/02 09:10:55;;;;;;;6.47;2.60;;;;;;;14.69;100.00;99703.97;1761662;80;21427;-67
2021/06/02 09:13:23;;;;;;;6.10;2.97;;;;;;;14.65;100.00;99699.67;1703510;80;21038;-68
2021/06/02 09:15:52;;;;;;;6.30;4.00;;;;;;;14.65;100.00;99703.61;1759061;80;20944;-70
2021/06/02 09:18:22;;;;;;;6.40;2.92;;;;;;;14.60;100.00;99712.67;1757470;80;21580;-69
2021/06/02 09:20:50;;;;;;;3.63;2.27;;;;;;;14.53;100.00;99714.58;1764748;80;22018;-69
2021/06/02 09:23:39;;;;;;;3.90;2.40;;;;;;;14.52;100.00;99722.16;1761035;80;21339;-69
2021/06/02 09:26:13;;;;;;;4.60;2.07;;;;;;;14.72;100.00;99718.75;1760305;80;21007;-70
2021/06/02 09:28:48;;;;;;;3.50;2.37;;;;;;;14.56;100.00;99717.56;1755478;80;21543;-70
2021/06/02 09:31:25;;;;;;;3.53;2.20;;;;;;;14.54;100.00;99726.66;1760997;80;21095;-70
2021/06/02 09:33:58;;;;;;;4.60;2.47;;;;;;;14.59;100.00;99724.99;1766608;80;21079;-68
2021/06/02 09:36:30;;;;;;;3.90;2.23;;;;;;;14.53;100.00;99727.69;1755525;80;21015;-69
2021/06/02 09:39:02;;;;;;;5.17;2.97;;;;;;;14.53;100.00;99725.06;1757946;80;20963;-68
2021/06/02 09:41:29;;;;;;;5.85;2.62;;;;;;;14.52;100.00;99734.77;1756503;80;20947;-69
2021/06/02 09:43:56;;;;;;;6.40;2.90;;;;;;;14.57;100.00;99730.16;1762253;80;21942;-70
2021/06/02 09:46:23;;;;;;;6.37;2.83;;;;;;;14.55;100.00;99728.28;1765099;80;21062;-70
2021/06/02 09:49:00;;;;;;;6.60;2.70;;;;;;;14.54;100.00;99730.08;1757541;80;20950;-70
2021/06/02 09:51:35;;;;;;;4.27;2.40;;;;;;;14.52;100.00;99734.77;1763745;80;21057;-70
2021/06/02 09:54:05;;;;;;;6.20;3.30;;;;;;;14.58;100.00;99733.89;1752290;80;20900;-70
2021/06/02 09:56:43;;;;;;;4.40;2.40;;;;;;;14.59;100.00;99731.55;1750874;80;20948;-69
2021/06/02 09:59:12;;;;;;;5.23;2.77;;;;;;;14.65;100.00;99733.78;1764875;80;21702;-69
2021/06/02 10:02:00;;;;;;;4.37;2.80;;;;;;;14.60;100.00;99737.59;1756903;80;21030;-70
2021/06/02 10:04:36;;;;;;;4.67;2.80;;;;;;;14.60;100.00;99733.14;1752579;80;20991;-69
2021/06/02 10:07:04;;;;;;;4.17;2.50;;;;;;;14.65;100.00;99736.41;1750581;80;21601;-70
2021/06/02 10:09:34;;;;;;;5.27;2.77;;;;;;;14.64;100.00;99734.02;1753336;80;21345;-69
2021/06/02 10:12:07;;;;;;;4.33;2.93;;;;;;;14.69;100.00;99734.94;1752471;80;21090;-69
2021/06/02 10:14:36;;;;;;;4.73;3.07;;;;;;;14.70;100.00;99739.17;1727545;81;21032;-70
2021/06/02 10:17:07;;;;;;;5.10;3.27;;;;;;;14.76;100.00;99741.41;1752254;80;22258;-70
2021/06/02 10:19:40;;;;;;;4.47;3.00;;;;;;;14.79;100.00;99741.77;1737764;80;21912;-69
2021/06/02 10:22:29;;;;;;;7.47;2.83;;;;;;;14.87;100.00;99738.54;1759976;80;21570;-70
2021/06/02 10:25:00;;;;;;;4.77;3.17;;;;;;;14.87;100.00;99746.41;1761641;80;21924;-70
2021/06/02 10:27:27;;;;;;;5.27;2.83;;;;;;;14.89;100.00;99747.80;1752842;80;21075;-69
2021/06/02 10:29:55;;;;;;;6.57;3.07;;;;;;;15.00;100.00;99744.90;1752354;80;20912;-69
2021/06/02 10:32:22;;;;;;;5.60;3.23;;;;;;;14.97;100.00;99750.62;1754140;78;20965;-71
2021/06/02 10:34:51;;;;;;;5.53;3.27;;;;;;;15.00;100.00;99747.52;1751831;80;20995;-69
2021/06/02 10:37:19;;;;;;;6.30;3.10;;;;;;;15.00;100.00;99750.15;1755195;80;21028;-67
2021/06/02 10:39:57;;;;;;;4.53;3.60;;;;;;;14.96;100.00;99751.11;1752016;80;21517;-67
2021/06/02 10:42:54;;;;;;;6.70;3.43;;;;;;;14.99;100.00;99747.24;1730546;80;20944;-68
2021/06/02 10:45:26;;;;;;;7.43;3.13;;;;;;;15.07;100.00;99748.23;1757908;80;21003;-68
2021/06/02 10:47:58;;;;;;;6.70;4.30;;;;;;;15.07;100.00;99745.61;1705840;80;21016;-69
2021/06/02 10:50:38;;;;;;;6.30;3.87;;;;;;;15.10;100.00;99743.85;1753100;80;21087;-68
2021/06/02 10:53:25;;;;;;;6.87;4.03;;;;;;;15.19;100.00;99745.14;1752342;79;20913;-69
2021/06/02 10:55:57;;;;;;;5.87;3.33;;;;;;;15.23;100.00;99744.18;1755062;80;21110;-68
2021/06/02 10:58:31;;;;;;;5.30;3.10;;;;;;;15.22;100.00;99745.19;1758448;80;21121;-68
2021/06/02 11:01:12;;;;;;;7.40;3.50;;;;;;;15.29;100.00;99741.42;1752622;80;20860;-67
2021/06/02 11:03:42;;;;;;;6.58;3.58;;;;;;;15.28;100.00;99740.35;1760793;80;21338;-68
2021/06/02 11:06:17;;;;;;;4.93;3.60;;;;;;;15.27;100.00;99742.18;1757795;80;21011;-69
2021/06/02 11:09:00;;;;;;;7.00;3.53;;;;;;;15.27;100.00;99734.30;1759966;80;21518;-69
2021/06/02 11:11:31;;;;;;;6.40;3.43;;;;;;;15.27;100.00;99739.55;1758535;80;21099;-68
2021/06/02 11:14:20;;;;;;;5.30;3.60;;;;;;;15.30;100.00;99736.48;1759607;80;21517;-67
2021/06/02 11:16:52;;;;;;;9.07;4.27;;;;;;;15.32;100.00;99730.99;1757825;80;20988;-70
2021/06/02 11:19:24;;;;;;;5.97;3.63;;;;;;;15.28;100.00;99729.33;1768354;80;21006;-68
2021/06/02 11:21:58;;;;;;;6.97;4.17;;;;;;;15.24;100.00;99726.08;1758601;80;21062;-67
2021/06/02 11:24:37;;;;;;;5.90;3.80;;;;;;;15.21;100.00;99731.78;1759675;80;21582;-70
2021/06/02 11:27:17;;;;;;;5.40;3.60;;;;;;;15.24;100.00;99729.50;1758593;80;21083;-68
2021/06/02 11:29:54;;;;;;;5.65;3.70;;;;;;;15.23;100.00;99722.66;1753968;80;21545;-67
2021/06/02 11:32:27;;;;;;;5.47;3.93;;;;;;;15.20;100.00;99724.42;1765871;80;21133;-67
2021/06/02 11:35:06;;;;;;;4.83;3.40;;;;;;;15.20;100.00;99729.67;1765773;80;21001;-69
2021/06/02 11:37:35;;;;;;;6.83;3.23;;;;;;;15.22;100.00;99724.97;1763888;80;20908;-69
2021/06/02 11:40:05;;;;;;;5.77;3.70;;;;;;;15.25;100.00;99727.67;1762513;80;21576;-67
2021/06/02 11:42:42;;;;;;;5.70;3.60;;;;;;;15.25;100.00;99719.28;1757085;80;21662;-67
2021/06/02 11:45:16;;;;;;;5.80;3.97;;;;;;;15.25;100.00;99719.28;1761616;78;21095;-67
2021/06/02 11:47:48;;;;;;;5.73;4.03;;;;;;;15.25;100.00;99723.22;1761039;80;20964;-68
2021/06/02 11:50:22;;;;;;;5.37;3.30;;;;;;;15.22;100.00;99730.22;1762358;80;21043;-66
2021/06/02 11:53:00;;;;;;;5.13;4.03;;;;;;;15.21;100.00;99727.84;1764472;80;20938;-67
2021/06/02 11:55:28;;;;;;;8.63;4.10;;;;;;;15.22;100.00;99727.59;1769704;80;21096;-70
2021/06/02 11:57:55;;;;;;;7.70;3.60;;;;;;;15.14;100.00;99725.83;1762031;80;21470;-65
2021/06/02 12:00:30;;;;;;;6.00;4.00;;;;;;;15.10;100.00;99721.53;1772114;80;20968;-66
2021/06/02 12:03:04;;;;;;;7.57;4.40;;;;;;;15.08;100.00;99723.61;1761766;80;20998;-67
2021/06/02 12:05:41;;;;;;;6.37;4.10;;;;;;;15.08;100.00;99720.46;1766056;80;20948;-69
2021/06/02 12:08:16;;;;;;;5.93;3.40;;;;;;;15.05;100.00;99729.30;1757978;80;21812;-68
2021/06/02 12:10:48;;;;;;;4.37;3.07;;;;;;;15.07;100.00;99728.55;1763881;78;21068;-69
2021/06/02 12:13:23;;;;;;;6.27;3.20;;;;;;;14.94;100.00;99721.67;1756566;80;20926;-67
2021/06/02 12:16:01;;;;;;;5.43;3.57;;;;;;;14.88;100.00;99721.77;1762405;78;21381;-70
2021/06/02 12:18:50;;;;;;;5.30;3.03;;;;;;;14.91;100.00;99723.43;1753791;80;21047;-68